Weather forecast for Cergowa

Poland, 671 m
N49.532, E21.719


Sounding

Red line — air temperature ˚C.
Blue line — thermal bubble temperature ˚C.
Green line — dew point temperature ˚C.
Wind speed is in meters per second.

Table forecast

GFS 0.25˚ model

temp. wind gust humid. clouds prec. press. hpbl
Wed21 00:00 -1 70.0 ene 2 3 96 100 3.6 1019 143
03:00 -1 75.0 ene 2 5 93 100 0.3 1019 270
06:00 -1 61.0 ene 2 4 93 100 0.3 1020 203
09:00 -0 55.0 ne 2 5 89 100 0.0 1021 324
12:00 1 58.0 ene 4 8 87 100 0.0 1020 487
15:00 -0 53.0 ne 4 9 90 100 0.0 1021 519
18:00 -1 55.0 ne 4 9 91 100 0.0 1022 516
21:00 -1 51.0 ne 3 8 93 100 0.0 1023 391
 
Thu22 00:00 -3 38.0 ne 2 2 97 99 0.0 1024 41
03:00 -2 38.0 ne 1 1 96 98 0.0 1024 84
06:00 -2 20.0 nne 1 1 96 99 0.1 1024 71
09:00 1 31.0 nne 1 1 87 100 0.0 1025 225
12:00 2 36.0 ne 1 1 86 100 0.2 1025 256
15:00 -0 16.0 nne 1 1 97 73 0.1 1025 21
18:00 -2 26.0 nne 1 1 98 38 0.1 1026 21
21:00 -2 50.0 ne 0 0 97 1 0.0 1027 21
 
Fri23 00:00 -2 101.0 e 0 0 96 0 0.0 1027 21
03:00 -1 146.0 se 1 1 96 0 0.0 1028 21
06:00 -1 164.0 sse 1 1 95 0 0.0 1028 21
09:00 3 180.0 s 2 3 85 0 0.0 1028 228
12:00 5 181.0 s 3 6 81 0 0.0 1027 464
15:00 2 179.0 s 2 5 95 0 0.0 1027 126
18:00 2 187.0 s 4 11 95 0 0.0 1027 338
21:00 2 187.0 s 5 12 95 0 0.0 1026 392
 
Sat24 00:00 2 191.0 s 5 13 94 2 0.0 1024 549
03:00 2 189.0 s 5 14 95 41 0.0 1022 543
06:00 3 192.0 ssw 7 15 92 64 0.0 1020 672
09:00 4 193.0 ssw 8 15 86 98 0.0 1019 672
12:00 5 190.0 s 7 16 85 99 0.4 1017 684
15:00 4 189.0 s 7 15 86 100 1.7 1016 625
18:00 4 192.0 ssw 6 14 90 100 2.6 1015 601
21:00 4 193.0 ssw 6 14 88 100 1.3 1015 578
 
Sun25 00:00 4 198.0 ssw 5 12 91 100 2.6 1014 519
03:00 3 200.0 ssw 3 8 95 100 1.0 1013 319
06:00 2 202.0 ssw 2 4 98 100 1.1 1013 146
09:00 5 205.0 ssw 2 4 91 99 0.0 1013 248
12:00 6 209.0 ssw 2 3 84 100 0.0 1012 452
15:00 5 218.0 sw 1 1 92 99 0.0 1012 22
18:00 4 172.0 s 1 1 96 99 0.1 1012 22
21:00 4 189.0 s 0 0 95 100 0.1 1012 25
 

0.020 s